Time;durP1;ratioP1;P1;durP2;ratioP2;P2;SDS_P1;SDS_P2;PMS_P1;PMS_P2;Temp;Humidity;BMP_temperature;BMP_pressure;BME280_temperature;BME280_humidity;BME280_pressure;Samples;Min_cycle;Max_cycle;Signal;HPM_P1;HPM_P2
2022/03/11 00:00:57;;;;;;;17.40;7.53;;;6.30;99.90;;;;;;6236708;23;20559;-86
2022/03/11 00:03:23;;;;;;;10.73;6.80;;;6.10;99.90;;;;;;6238205;23;20008;-79
2022/03/11 00:05:49;;;;;;;14.32;7.55;;;6.10;99.90;;;;;;6214606;23;20012;-80
2022/03/11 00:08:14;;;;;;;11.98;7.40;;;6.00;99.90;;;;;;6240553;22;20023;-81
2022/03/11 00:10:40;;;;;;;13.13;7.43;;;6.30;99.90;;;;;;6239177;23;20448;-82
2022/03/11 00:13:06;;;;;;;12.63;6.85;;;6.20;99.90;;;;;;6212394;23;20016;-80
2022/03/11 00:15:32;;;;;;;16.20;6.57;;;5.90;99.90;;;;;;6214583;23;20443;-80
2022/03/11 00:17:57;;;;;;;18.13;7.72;;;5.90;99.90;;;;;;6244165;23;20417;-84
2022/03/11 00:20:24;;;;;;;12.95;5.85;;;5.90;99.90;;;;;;6242064;23;20502;-79
2022/03/11 00:22:51;;;;;;;13.35;7.45;;;5.90;99.90;;;;;;6215386;23;20020;-78
2022/03/11 00:25:19;;;;;;;13.60;7.70;;;5.90;99.90;;;;;;6217875;23;20095;-81
2022/03/11 00:27:45;;;;;;;14.73;6.72;;;5.80;99.90;;;;;;6242791;23;20087;-82
2022/03/11 00:30:11;;;;;;;11.60;7.18;;;5.70;99.90;;;;;;6238688;23;20008;-79
2022/03/11 00:32:37;;;;;;;10.85;6.95;;;5.70;99.90;;;;;;6217306;23;20024;-79
2022/03/11 00:35:07;;;;;;;15.18;8.30;;;5.80;99.90;;;;;;6242595;23;20027;-83
2022/03/11 00:37:33;;;;;;;13.05;7.28;;;5.70;99.90;;;;;;6215550;23;20020;-80
2022/03/11 00:39:58;;;;;;;13.88;7.03;;;5.70;99.90;;;;;;6240570;23;20016;-78
2022/03/11 00:42:24;;;;;;;11.05;7.40;;;5.60;99.90;;;;;;6238965;23;20435;-81
2022/03/11 00:44:49;;;;;;;17.50;7.65;;;5.60;99.90;;;;;;6216370;23;20023;-84
2022/03/11 00:47:15;;;;;;;12.27;7.20;;;6.50;99.90;;;;;;6214170;23;20064;-85
2022/03/11 00:49:41;;;;;;;17.45;7.30;;;5.90;99.90;;;;;;6243257;23;20344;-84
2022/03/11 00:52:06;;;;;;;16.95;7.22;;;5.60;99.90;;;;;;6214013;23;20019;-81
2022/03/11 00:54:32;;;;;;;14.32;7.45;;;5.60;99.90;;;;;;6242013;23;20280;-84
2022/03/11 00:56:57;;;;;;;11.25;6.88;;;5.60;99.90;;;;;;6239355;23;20051;-79
2022/03/11 00:59:23;;;;;;;14.13;7.07;;;5.50;99.90;;;;;;6215146;23;20008;-82
2022/03/11 01:01:49;;;;;;;13.05;7.25;;;5.50;99.90;;;;;;6241500;22;20086;-84
2022/03/11 01:04:15;;;;;;;10.55;6.38;;;5.40;99.90;;;;;;6241706;23;20269;-81
2022/03/11 01:06:41;;;;;;;10.68;7.40;;;5.50;99.90;;;;;;6239519;22;20079;-85
2022/03/11 01:09:07;;;;;;;18.23;8.07;;;5.50;99.90;;;;;;6215181;23;20125;-81
2022/03/11 01:11:33;;;;;;;12.45;7.18;;;5.50;99.90;;;;;;6241501;23;20016;-83
2022/03/11 01:13:59;;;;;;;12.98;7.30;;;5.40;99.90;;;;;;6244003;23;20019;-77
2022/03/11 01:16:25;;;;;;;13.93;7.65;;;5.60;99.90;;;;;;6191231;23;20123;-79
2022/03/11 01:18:50;;;;;;;15.15;6.32;;;5.60;99.90;;;;;;6216401;23;20040;-83
2022/03/11 01:21:16;;;;;;;16.70;5.85;;;5.40;99.90;;;;;;6239590;23;20103;-83
2022/03/11 01:23:42;;;;;;;16.52;7.82;;;5.40;99.90;;;;;;6240642;23;20011;-85
2022/03/11 01:26:08;;;;;;;17.70;7.65;;;5.50;99.90;;;;;;6215533;23;20087;-82
2022/03/11 01:28:34;;;;;;;13.18;7.10;;;5.40;99.90;;;;;;6213662;23;20042;-81
2022/03/11 01:30:59;;;;;;;14.20;8.55;;;5.20;99.90;;;;;;6241021;23;20321;-83
2022/03/11 01:33:25;;;;;;;12.32;6.97;;;5.30;99.90;;;;;;6217034;23;20024;-80
2022/03/11 01:35:51;;;;;;;11.90;6.90;;;5.20;99.90;;;;;;6240975;23;20020;-83
2022/03/11 01:38:17;;;;;;;11.63;6.75;;;5.50;99.90;;;;;;6216590;23;20059;-82
2022/03/11 01:40:43;;;;;;;15.98;7.82;;;5.10;99.90;;;;;;6213104;23;20071;-82
2022/03/11 01:43:13;;;;;;;16.63;9.20;;;5.10;99.90;;;;;;6215731;23;20074;-78
2022/03/11 01:45:39;;;;;;;13.82;8.23;;;5.00;99.90;;;;;;6238266;23;20016;-85
2022/03/11 01:48:04;;;;;;;15.38;7.90;;;5.00;99.90;;;;;;6214013;23;20027;-82
2022/03/11 01:50:30;;;;;;;18.55;8.73;;;5.00;99.90;;;;;;6214878;23;20110;-82
2022/03/11 01:52:57;;;;;;;14.80;9.13;;;5.20;99.90;;;;;;6240289;23;20573;-86
2022/03/11 01:55:22;;;;;;;14.23;9.75;;;5.00;99.90;;;;;;6240908;23;20012;-86
2022/03/11 01:57:49;;;;;;;15.40;9.82;;;5.00;99.90;;;;;;6241263;23;20020;-78
2022/03/11 02:00:17;;;;;;;13.98;8.85;;;4.90;99.90;;;;;;6238288;23;20018;-82
2022/03/11 02:02:43;;;;;;;19.88;9.65;;;4.80;99.90;;;;;;6239975;22;20047;-78
2022/03/11 02:05:09;;;;;;;17.55;10.60;;;4.80;99.90;;;;;;6240744;23;20016;-80
2022/03/11 02:07:35;;;;;;;21.67;10.40;;;4.80;99.90;;;;;;6240290;22;20054;-81
2022/03/11 02:10:00;;;;;;;23.55;10.35;;;5.20;99.90;;;;;;6240819;23;20016;-78
2022/03/11 02:12:35;;;;;;;18.08;10.70;;;4.70;99.90;;;;;;6237860;23;20048;-83
2022/03/11 02:15:04;;;;;;;18.95;10.85;;;4.80;99.90;;;;;;6238589;23;20047;-82
2022/03/11 02:17:29;;;;;;;16.95;10.50;;;4.70;99.90;;;;;;6215662;23;20055;-83
2022/03/11 02:19:55;;;;;;;16.33;9.65;;;4.60;99.90;;;;;;6239102;23;20012;-83
2022/03/11 02:22:23;;;;;;;19.58;10.73;;;4.70;99.90;;;;;;6239570;23;20012;-82
2022/03/11 02:24:50;;;;;;;18.60;10.52;;;4.60;99.90;;;;;;6213645;23;20016;-79
2022/03/11 02:27:15;;;;;;;16.80;9.85;;;4.60;99.90;;;;;;6213399;23;20017;-80
2022/03/11 02:29:41;;;;;;;19.85;11.55;;;4.60;99.90;;;;;;6238974;23;20018;-79
2022/03/11 02:32:08;;;;;;;22.00;12.50;;;4.60;99.90;;;;;;6215139;23;20016;-80
2022/03/11 02:34:36;;;;;;;18.67;11.15;;;4.60;99.90;;;;;;6237075;23;20020;-80
2022/03/11 02:37:02;;;;;;;19.95;11.60;;;4.80;99.90;;;;;;6214355;23;20027;-82
2022/03/11 02:39:28;;;;;;;18.27;11.07;;;4.50;99.90;;;;;;6215131;23;20016;-81
2022/03/11 02:41:54;;;;;;;17.77;10.38;;;4.50;99.90;;;;;;6215242;23;20015;-83
2022/03/11 02:44:19;;;;;;;22.27;12.27;;;4.50;99.90;;;;;;6240536;23;20027;-84
2022/03/11 02:46:45;;;;;;;20.70;12.38;;;4.60;99.90;;;;;;6240406;23;20107;-85
2022/03/11 02:49:11;;;;;;;24.98;13.90;;;4.50;99.90;;;;;;6241855;23;20016;-82
2022/03/11 02:51:36;;;;;;;21.58;11.35;;;4.40;99.90;;;;;;6240929;23;20089;-79
2022/03/11 02:54:03;;;;;;;26.85;12.70;;;4.50;99.90;;;;;;6214184;23;20014;-79
2022/03/11 02:56:29;;;;;;;25.33;13.52;;;4.50;99.90;;;;;;6239913;23;20024;-86
2022/03/11 02:58:54;;;;;;;27.48;14.68;;;4.40;99.90;;;;;;6238058;23;20016;-86
2022/03/11 03:01:20;;;;;;;22.92;13.80;;;4.30;99.90;;;;;;6214626;23;20016;-78
2022/03/11 03:03:46;;;;;;;28.05;13.75;;;4.20;99.90;;;;;;6213676;23;20016;-79
2022/03/11 03:06:11;;;;;;;26.48;14.93;;;4.20;99.90;;;;;;6240238;22;20040;-82
2022/03/11 03:08:37;;;;;;;24.45;13.23;;;4.40;99.90;;;;;;6214200;23;20066;-78
2022/03/11 03:11:02;;;;;;;23.88;14.13;;;4.20;99.90;;;;;;6238253;23;20087;-81
2022/03/11 03:13:29;;;;;;;25.30;15.48;;;4.30;99.90;;;;;;6238034;23;20020;-85
2022/03/11 03:15:54;;;;;;;28.02;12.77;;;4.30;99.90;;;;;;6211891;23;20412;-84
2022/03/11 03:18:20;;;;;;;23.98;14.95;;;4.20;99.90;;;;;;6212475;23;20012;-87
2022/03/11 03:20:46;;;;;;;25.70;15.90;;;4.30;99.90;;;;;;6240898;22;20019;-81
2022/03/11 03:23:11;;;;;;;28.83;14.32;;;4.20;99.90;;;;;;6212652;23;20328;-81
2022/03/11 03:25:37;;;;;;;26.20;15.32;;;4.10;99.90;;;;;;6239363;23;20038;-80
2022/03/11 03:28:03;;;;;;;22.05;11.00;;;4.20;99.90;;;;;;6239319;23;20012;-82
2022/03/11 03:30:29;;;;;;;24.33;14.80;;;4.20;99.90;;;;;;6212480;23;20127;-80
2022/03/11 03:32:54;;;;;;;31.35;16.60;;;4.20;99.90;;;;;;6213851;23;20036;-82
2022/03/11 03:35:20;;;;;;;28.55;15.98;;;4.00;99.90;;;;;;6240254;23;20016;-82
2022/03/11 03:37:46;;;;;;;26.95;14.90;;;4.10;99.90;;;;;;6239071;23;20050;-83
2022/03/11 03:40:12;;;;;;;25.45;16.27;;;4.10;99.90;;;;;;6241399;23;20004;-82
2022/03/11 03:42:38;;;;;;;26.85;16.15;;;4.00;99.90;;;;;;6240065;23;20095;-82
2022/03/11 03:45:06;;;;;;;24.45;15.18;;;4.00;99.90;;;;;;6236858;23;20085;-81
2022/03/11 03:47:31;;;;;;;24.58;15.07;;;4.10;99.90;;;;;;6237502;23;20024;-78
2022/03/11 03:49:57;;;;;;;27.20;16.85;;;4.00;99.90;;;;;;6242327;23;20074;-77
2022/03/11 03:52:23;;;;;;;25.35;15.00;;;4.00;99.90;;;;;;6238606;23;20118;-79
2022/03/11 03:54:48;;;;;;;32.22;16.35;;;4.00;99.90;;;;;;6213981;23;20637;-85
2022/03/11 03:57:14;;;;;;;29.30;17.65;;;4.10;99.90;;;;;;6241657;23;20017;-84
2022/03/11 03:59:40;;;;;;;29.50;17.27;;;4.10;99.90;;;;;;6239632;23;20013;-82
2022/03/11 04:02:06;;;;;;;24.67;13.48;;;4.00;99.90;;;;;;6239717;23;20012;-82
2022/03/11 04:04:32;;;;;;;33.50;16.02;;;4.10;99.90;;;;;;6213723;23;20008;-82
2022/03/11 04:06:57;;;;;;;27.08;14.43;;;4.00;99.90;;;;;;6240854;22;20473;-82
2022/03/11 04:09:23;;;;;;;26.02;14.35;;;4.20;99.90;;;;;;6240657;23;20012;-81
2022/03/11 04:11:49;;;;;;;34.65;17.10;;;4.00;99.90;;;;;;6241982;23;20019;-81
2022/03/11 04:14:14;;;;;;;24.02;15.27;;;3.90;99.90;;;;;;6242846;23;20476;-82
2022/03/11 04:16:40;;;;;;;29.88;17.23;;;3.90;99.90;;;;;;6236421;23;20013;-78
2022/03/11 04:19:06;;;;;;;30.58;16.63;;;3.90;99.90;;;;;;6238106;23;20448;-83
2022/03/11 04:21:31;;;;;;;28.80;16.42;;;3.90;99.90;;;;;;6240732;23;20019;-82
2022/03/11 04:23:57;;;;;;;36.67;16.52;;;3.80;99.90;;;;;;6213338;23;20456;-79
2022/03/11 04:26:23;;;;;;;33.88;17.13;;;3.80;99.90;;;;;;6238606;23;20018;-79
2022/03/11 04:28:49;;;;;;;28.17;15.25;;;3.90;99.90;;;;;;6215356;23;20094;-85
2022/03/11 04:31:15;;;;;;;27.15;15.27;;;3.90;99.90;;;;;;6239501;23;20027;-79
2022/03/11 04:33:41;;;;;;;26.88;15.90;;;4.30;99.90;;;;;;6214349;23;20056;-83
2022/03/11 04:36:08;;;;;;;23.15;14.25;;;3.80;99.90;;;;;;6241454;23;20027;-83
2022/03/11 04:38:34;;;;;;;29.85;16.83;;;3.80;99.90;;;;;;6238964;23;20038;-84
2022/03/11 04:41:00;;;;;;;26.83;11.70;;;3.80;99.90;;;;;;6212792;23;20012;-81
2022/03/11 04:43:26;;;;;;;26.38;16.83;;;3.70;99.90;;;;;;6238059;23;20039;-83
2022/03/11 04:45:52;;;;;;;32.25;18.42;;;3.70;99.90;;;;;;6235150;23;20012;-80
2022/03/11 04:48:18;;;;;;;29.38;18.17;;;3.60;99.90;;;;;;6211723;23;20012;-84
2022/03/11 04:50:44;;;;;;;30.65;17.55;;;3.90;99.90;;;;;;6212880;23;20292;-84
2022/03/11 04:53:10;;;;;;;28.08;15.38;;;3.50;99.90;;;;;;6211645;23;20030;-83
2022/03/11 04:55:36;;;;;;;27.75;16.63;;;3.50;99.90;;;;;;6214934;23;20050;-84
2022/03/11 04:58:02;;;;;;;35.63;17.27;;;3.50;99.90;;;;;;6216100;23;20016;-84
2022/03/11 05:00:27;;;;;;;30.67;18.20;;;3.60;99.90;;;;;;6240645;23;20012;-83
2022/03/11 05:02:54;;;;;;;23.55;14.38;;;4.10;99.90;;;;;;6215779;23;20466;-82
2022/03/11 05:05:20;;;;;;;26.35;14.60;;;3.50;99.90;;;;;;6215713;23;20094;-80
2022/03/11 05:07:46;;;;;;;29.92;16.77;;;3.50;99.90;;;;;;6215857;23;20012;-81
2022/03/11 05:10:14;;;;;;;25.83;14.82;;;3.90;99.90;;;;;;6214101;23;20428;-82
2022/03/11 05:12:40;;;;;;;30.45;18.67;;;3.40;99.90;;;;;;6218474;23;20091;-81
2022/03/11 05:15:08;;;;;;;29.67;17.98;;;3.40;99.90;;;;;;6237781;23;20020;-78
2022/03/11 05:17:34;;;;;;;29.35;16.60;;;3.30;99.90;;;;;;6214821;23;20016;-82
2022/03/11 05:19:59;;;;;;;31.00;17.75;;;3.20;99.90;;;;;;6242940;22;20034;-80
2022/03/11 05:22:25;;;;;;;30.55;15.55;;;3.30;99.90;;;;;;6215907;23;20016;-84
2022/03/11 05:24:51;;;;;;;32.97;16.25;;;3.30;99.90;;;;;;6238579;23;20066;-80
2022/03/11 05:27:17;;;;;;;30.17;18.30;;;3.20;99.90;;;;;;6213860;23;20143;-77
2022/03/11 05:29:43;;;;;;;29.52;17.35;;;3.30;99.90;;;;;;6214442;23;20032;-79
2022/03/11 05:32:14;;;;;;;26.75;14.82;;;3.20;99.90;;;;;;6239354;23;20044;-79
2022/03/11 05:34:42;;;;;;;30.15;16.55;;;3.30;99.90;;;;;;6237819;23;20110;-77
2022/03/11 05:37:08;;;;;;;26.45;14.95;;;3.50;99.90;;;;;;6212965;23;20019;-77
2022/03/11 05:39:33;;;;;;;31.95;18.05;;;3.30;99.90;;;;;;6213003;23;20095;-78
2022/03/11 05:41:59;;;;;;;42.03;17.77;;;3.30;99.90;;;;;;6213209;23;20008;-76
2022/03/11 05:44:25;;;;;;;29.02;16.45;;;3.20;99.90;;;;;;6213507;23;20055;-81
2022/03/11 05:46:55;;;;;;;32.08;18.60;;;3.30;99.90;;;;;;6239928;23;20016;-80
2022/03/11 05:49:21;;;;;;;34.95;17.50;;;3.10;99.90;;;;;;6238172;23;20023;-78
2022/03/11 05:51:47;;;;;;;35.20;18.88;;;3.20;99.90;;;;;;6239884;23;20012;-79
2022/03/11 05:54:12;;;;;;;29.38;17.02;;;3.10;99.90;;;;;;6238241;23;20344;-78
2022/03/11 05:56:38;;;;;;;30.17;18.30;;;3.10;99.90;;;;;;6239046;23;20066;-76
2022/03/11 05:59:04;;;;;;;29.75;18.20;;;3.30;99.90;;;;;;6213670;23;20038;-78
2022/03/11 06:01:34;;;;;;;33.35;18.00;;;3.00;99.90;;;;;;6240331;23;20004;-78
2022/03/11 06:04:01;;;;;;;32.30;16.17;;;3.20;99.90;;;;;;6215389;23;20012;-76
2022/03/11 06:06:27;;;;;;;25.75;15.85;;;3.10;99.90;;;;;;6239385;22;20008;-78
2022/03/11 06:08:53;;;;;;;31.02;18.05;;;3.00;99.90;;;;;;6240043;23;20058;-75
2022/03/11 06:11:18;;;;;;;31.98;18.05;;;3.10;99.90;;;;;;6238601;23;20511;-77
2022/03/11 06:13:44;;;;;;;27.27;16.67;;;3.00;99.90;;;;;;6217293;23;20012;-77
2022/03/11 06:16:10;;;;;;;31.42;19.13;;;3.10;99.90;;;;;;6223254;23;20012;-77
2022/03/11 06:18:35;;;;;;;31.20;18.15;;;3.00;99.90;;;;;;6243375;23;20070;-77
2022/03/11 06:21:01;;;;;;;30.02;16.27;;;3.00;99.90;;;;;;6213367;23;20012;-76
2022/03/11 06:23:27;;;;;;;27.45;15.65;;;3.00;99.90;;;;;;6214817;23;20016;-81
2022/03/11 06:25:52;;;;;;;31.25;16.73;;;3.00;99.90;;;;;;6240181;23;20048;-78
2022/03/11 06:28:18;;;;;;;31.13;16.58;;;3.10;99.90;;;;;;6240286;23;20047;-76
2022/03/11 06:30:46;;;;;;;30.58;17.90;;;2.90;99.90;;;;;;6237511;23;20012;-78
2022/03/11 06:33:12;;;;;;;28.67;15.88;;;2.90;99.90;;;;;;6214616;23;20433;-77
2022/03/11 06:35:38;;;;;;;29.60;16.27;;;3.20;99.90;;;;;;6240053;23;20023;-78
2022/03/11 06:38:03;;;;;;;31.00;17.30;;;3.00;99.90;;;;;;6241954;23;20427;-81
2022/03/11 06:40:29;;;;;;;28.83;18.05;;;3.00;99.90;;;;;;6213831;23;20480;-79
2022/03/11 06:42:56;;;;;;;30.65;18.05;;;3.00;99.90;;;;;;6237576;23;20389;-80
2022/03/11 06:45:22;;;;;;;32.42;17.33;;;3.00;99.90;;;;;;6238140;23;20023;-79
2022/03/11 06:47:48;;;;;;;28.13;16.20;;;3.00;99.90;;;;;;6211306;23;20435;-78
2022/03/11 06:50:16;;;;;;;28.23;17.88;;;3.00;99.90;;;;;;6212653;23;20099;-79
2022/03/11 06:52:41;;;;;;;30.17;18.08;;;3.00;99.90;;;;;;6239098;23;20049;-78
2022/03/11 06:55:08;;;;;;;32.28;17.38;;;2.90;99.90;;;;;;6213542;23;20027;-79
2022/03/11 06:57:34;;;;;;;28.52;17.52;;;3.00;99.90;;;;;;6239909;23;20012;-80
2022/03/11 07:00:00;;;;;;;24.85;15.38;;;3.00;99.90;;;;;;6238098;23;20035;-78
2022/03/11 07:02:25;;;;;;;29.17;17.38;;;3.30;99.90;;;;;;6212529;23;20008;-76
2022/03/11 07:04:51;;;;;;;32.15;17.13;;;3.30;99.90;;;;;;6239051;23;20019;-77
2022/03/11 07:07:17;;;;;;;31.13;17.58;;;3.20;99.90;;;;;;6240344;22;20100;-81
2022/03/11 07:09:42;;;;;;;27.15;15.52;;;3.20;99.90;;;;;;6241114;23;20132;-81
2022/03/11 07:12:08;;;;;;;34.75;17.83;;;3.40;99.90;;;;;;6216103;23;20079;-78
2022/03/11 07:14:38;;;;;;;24.45;15.20;;;3.20;99.90;;;;;;6216211;23;20012;-79
2022/03/11 07:17:05;;;;;;;23.77;14.65;;;3.20;99.90;;;;;;6241533;23;20008;-82
2022/03/11 07:19:32;;;;;;;29.45;16.55;;;3.30;99.90;;;;;;6216460;23;20117;-82
2022/03/11 07:22:00;;;;;;;29.60;16.48;;;3.50;99.90;;;;;;6241262;23;20020;-80
2022/03/11 07:24:26;;;;;;;31.20;15.45;;;3.30;99.90;;;;;;6217045;23;20015;-80
2022/03/11 07:26:52;;;;;;;26.48;16.38;;;3.30;99.90;;;;;;6241540;23;20008;-78
2022/03/11 07:29:19;;;;;;;27.00;16.70;;;3.40;99.90;;;;;;6243554;23;20070;-79
2022/03/11 07:31:45;;;;;;;28.55;16.85;;;3.40;99.90;;;;;;6241091;23;20016;-77
2022/03/11 07:34:11;;;;;;;28.98;16.08;;;3.40;99.90;;;;;;6241445;23;20031;-84
2022/03/11 07:36:37;;;;;;;29.92;13.98;;;3.50;99.90;;;;;;6216862;23;20440;-82
2022/03/11 07:39:08;;;;;;;24.02;14.82;;;3.50;99.90;;;;;;6241555;23;20012;-79
2022/03/11 07:41:34;;;;;;;27.63;16.98;;;3.60;99.90;;;;;;6241854;23;20031;-77
2022/03/11 07:44:01;;;;;;;26.95;16.77;;;3.60;99.90;;;;;;6216472;23;20015;-80
2022/03/11 07:46:28;;;;;;;24.15;14.90;;;3.60;99.90;;;;;;6240928;23;20039;-78
2022/03/11 07:48:57;;;;;;;26.33;16.55;;;3.70;99.90;;;;;;6215639;23;20121;-79
2022/03/11 07:51:25;;;;;;;27.70;16.60;;;3.70;99.90;;;;;;6244069;22;20026;-81
2022/03/11 07:53:51;;;;;;;29.40;18.33;;;3.80;99.90;;;;;;6242317;23;20012;-84
2022/03/11 07:56:17;;;;;;;24.60;14.45;;;3.90;99.90;;;;;;6243779;22;20027;-80
2022/03/11 07:58:43;;;;;;;32.15;17.42;;;4.20;99.90;;;;;;6243458;22;20023;-78
2022/03/11 08:01:10;;;;;;;30.77;17.52;;;3.90;99.90;;;;;;6240919;23;20016;-82
2022/03/11 08:03:37;;;;;;;27.95;16.17;;;4.00;99.90;;;;;;6242458;23;20025;-83
2022/03/11 08:06:04;;;;;;;26.52;16.95;;;4.00;99.90;;;;;;6242207;22;20012;-82
2022/03/11 08:08:29;;;;;;;28.65;16.58;;;4.00;99.90;;;;;;6215964;23;20020;-79
2022/03/11 08:10:55;;;;;;;27.95;17.55;;;4.10;99.90;;;;;;6216314;23;20349;-80
2022/03/11 08:13:21;;;;;;;24.27;15.73;;;4.30;99.90;;;;;;6241663;23;20016;-80
2022/03/11 08:15:47;;;;;;;28.38;17.00;;;4.30;99.90;;;;;;6239774;23;20083;-84
2022/03/11 08:18:13;;;;;;;24.67;13.77;;;4.50;99.90;;;;;;6240966;23;20109;-82
2022/03/11 08:20:39;;;;;;;26.50;16.23;;;4.40;99.90;;;;;;6215432;23;20054;-79
2022/03/11 08:23:05;;;;;;;31.50;17.10;;;4.40;99.90;;;;;;6241670;23;20008;-82
2022/03/11 08:25:31;;;;;;;29.15;16.85;;;4.50;99.90;;;;;;6240920;23;20066;-81
2022/03/11 08:27:57;;;;;;;27.67;16.48;;;4.50;99.90;;;;;;6241913;23;20068;-81
2022/03/11 08:30:25;;;;;;;36.35;16.00;;;4.70;99.90;;;;;;6241137;23;20080;-80
2022/03/11 08:32:52;;;;;;;31.15;17.08;;;4.80;99.90;;;;;;6215888;23;20095;-74
2022/03/11 08:35:19;;;;;;;26.27;16.10;;;4.70;99.90;;;;;;6215834;23;20016;-80
2022/03/11 08:37:45;;;;;;;25.52;14.93;;;4.80;99.90;;;;;;6218163;23;20020;-79
2022/03/11 08:40:11;;;;;;;25.30;14.57;;;4.90;99.90;;;;;;6217994;23;20023;-77
2022/03/11 08:42:38;;;;;;;25.52;16.98;;;5.00;99.90;;;;;;6217569;23;20012;-79
2022/03/11 08:45:05;;;;;;;30.92;17.40;;;5.00;99.90;;;;;;6216055;23;20414;-80
2022/03/11 08:47:31;;;;;;;29.75;17.05;;;5.00;99.90;;;;;;6216966;23;20043;-83
2022/03/11 08:49:57;;;;;;;26.95;16.67;;;5.10;99.90;;;;;;6192740;23;20024;-80
2022/03/11 08:52:25;;;;;;;23.15;12.65;;;5.20;99.90;;;;;;6193680;23;20099;-83
2022/03/11 08:54:52;;;;;;;27.27;16.60;;;5.20;99.90;;;;;;6218086;23;20016;-76
2022/03/11 08:57:18;;;;;;;24.15;13.75;;;5.40;99.90;;;;;;6217288;23;20056;-80
2022/03/11 08:59:44;;;;;;;32.83;14.73;;;5.40;99.90;;;;;;6219320;23;20019;-79
2022/03/11 09:02:10;;;;;;;26.85;17.58;;;5.50;99.90;;;;;;6218442;23;20051;-80
2022/03/11 09:04:36;;;;;;;24.83;15.82;;;5.60;99.90;;;;;;6192644;23;20016;-76
2022/03/11 09:07:03;;;;;;;26.42;16.23;;;5.60;99.90;;;;;;6192139;23;20016;-79
2022/03/11 09:09:29;;;;;;;33.42;17.63;;;5.60;99.90;;;;;;6218360;23;20064;-82
2022/03/11 09:11:55;;;;;;;25.45;16.45;;;5.80;99.90;;;;;;6191316;23;20016;-79
2022/03/11 09:14:21;;;;;;;37.60;17.65;;;5.80;99.90;;;;;;6216657;23;20016;-78
2022/03/11 09:16:47;;;;;;;21.00;10.70;;;5.90;99.90;;;;;;6216283;23;20025;-76
2022/03/11 09:19:13;;;;;;;23.55;14.70;;;6.00;99.90;;;;;;6217470;23;20066;-79
2022/03/11 09:21:39;;;;;;;26.55;16.27;;;6.20;99.90;;;;;;6192070;23;20073;-76
2022/03/11 09:24:05;;;;;;;27.40;14.25;;;6.10;99.90;;;;;;6191894;23;20047;-80
2022/03/11 09:26:32;;;;;;;29.10;16.80;;;6.20;99.90;;;;;;6192504;23;20091;-79
2022/03/11 09:28:58;;;;;;;21.65;14.00;;;6.20;99.90;;;;;;6215972;23;20016;-79
2022/03/11 09:31:23;;;;;;;28.73;17.55;;;6.20;99.90;;;;;;6216165;23;20023;-79
2022/03/11 09:33:49;;;;;;;27.40;17.10;;;6.50;99.90;;;;;;6225073;23;20024;-80
2022/03/11 09:36:15;;;;;;;28.40;17.75;;;6.30;99.90;;;;;;6216754;23;20016;-77
2022/03/11 09:38:41;;;;;;;30.20;15.63;;;6.30;99.90;;;;;;6216315;23;20024;-80
2022/03/11 09:41:07;;;;;;;23.13;14.95;;;6.40;99.90;;;;;;6242043;23;20015;-82
2022/03/11 09:43:35;;;;;;;30.65;16.30;;;6.50;99.90;;;;;;6243206;23;20040;-82
2022/03/11 09:46:01;;;;;;;28.23;16.85;;;6.60;99.90;;;;;;6242170;23;20008;-80
2022/03/11 09:48:27;;;;;;;28.00;17.98;;;6.70;99.90;;;;;;6243425;23;20434;-80
2022/03/11 09:50:53;;;;;;;25.92;15.02;;;6.70;99.90;;;;;;6216290;23;20066;-79
2022/03/11 09:53:20;;;;;;;25.80;15.75;;;6.80;99.90;;;;;;6217159;23;20028;-81
2022/03/11 09:55:45;;;;;;;24.48;15.50;;;6.90;99.90;;;;;;6244788;22;20054;-79
2022/03/11 09:58:11;;;;;;;25.67;13.25;;;7.00;99.90;;;;;;6243625;23;20016;-77
2022/03/11 10:00:37;;;;;;;27.63;16.92;;;7.00;99.90;;;;;;6216863;23;20048;-81
2022/03/11 10:03:03;;;;;;;24.15;16.38;;;7.20;99.90;;;;;;6243147;23;20488;-79
2022/03/11 10:05:49;;;;;;;31.00;16.60;;;7.20;99.90;;;;;;6217298;23;20020;-78
2022/03/11 10:08:16;;;;;;;27.45;17.75;;;7.20;99.90;;;;;;6243246;22;20012;-77
2022/03/11 10:10:42;;;;;;;23.85;16.17;;;7.30;99.90;;;;;;6242783;23;20016;-76
2022/03/11 10:13:10;;;;;;;28.92;16.05;;;7.50;99.90;;;;;;6242244;23;20019;-77
2022/03/11 10:15:36;;;;;;;24.90;16.50;;;7.70;99.90;;;;;;6216358;23;20020;-78
2022/03/11 10:18:02;;;;;;;21.50;12.43;;;7.70;99.90;;;;;;6243071;23;20024;-77
2022/03/11 10:20:30;;;;;;;24.65;16.15;;;7.80;99.90;;;;;;6217156;23;20109;-81
2022/03/11 10:22:57;;;;;;;22.52;13.35;;;7.90;99.90;;;;;;6243159;23;20044;-78
2022/03/11 10:25:30;;;;;;;26.98;15.80;;;8.00;99.90;;;;;;6243687;22;20039;-80
2022/03/11 10:28:02;;;;;;;27.50;15.93;;;8.00;99.90;;;;;;6241505;23;20019;-78
2022/03/11 10:30:29;;;;;;;23.50;15.80;;;8.10;99.90;;;;;;6241926;23;20090;-79
2022/03/11 10:32:57;;;;;;;26.10;15.98;;;8.20;99.90;;;;;;6242684;23;20091;-75
2022/03/11 10:35:30;;;;;;;25.80;13.85;;;8.40;99.90;;;;;;6216863;23;20115;-82
2022/03/11 10:38:17;;;;;;;27.48;16.13;;;8.60;99.90;;;;;;6216959;23;20073;-81
2022/03/11 10:40:51;;;;;;;22.90;15.80;;;8.70;99.90;;;;;;6191349;23;20016;-78
2022/03/11 10:43:21;;;;;;;31.17;16.98;;;8.90;99.90;;;;;;6192222;23;20020;-81
2022/03/11 10:46:01;;;;;;;23.27;16.30;;;9.00;99.90;;;;;;6216159;23;20012;-75
2022/03/11 10:48:52;;;;;;;26.45;16.45;;;9.10;99.90;;;;;;6191695;23;20065;-79
2022/03/11 10:51:26;;;;;;;24.35;16.90;;;9.30;99.90;;;;;;6242215;23;20091;-75
2022/03/11 10:53:52;;;;;;;23.02;15.02;;;9.50;99.90;;;;;;6191501;23;20381;-79
2022/03/11 10:56:33;;;;;;;23.35;16.65;;;9.70;99.90;;;;;;6216150;23;20039;-79
2022/03/11 10:58:59;;;;;;;25.17;16.73;;;9.70;99.90;;;;;;6215003;23;20077;-76
2022/03/11 11:01:43;;;;;;;26.27;16.23;;;9.80;99.90;;;;;;6215521;23;20012;-78
2022/03/11 11:04:11;;;;;;;26.65;16.55;;;10.00;99.90;;;;;;6215659;23;20439;-78
2022/03/11 11:06:37;;;;;;;24.42;16.48;;;10.10;99.90;;;;;;6216802;23;20123;-83
2022/03/11 11:09:04;;;;;;;25.02;16.77;;;10.10;99.00;;;;;;6216663;23;20016;-77
2022/03/11 11:11:31;;;;;;;25.33;15.85;;;10.20;98.70;;;;;;6190562;23;20180;-79
2022/03/11 11:14:04;;;;;;;28.92;16.35;;;10.30;98.60;;;;;;6190649;23;20115;-84
2022/03/11 11:16:31;;;;;;;22.38;16.20;;;10.20;98.90;;;;;;6216562;23;20058;-83
2022/03/11 11:18:58;;;;;;;23.48;17.02;;;10.60;99.90;;;;;;6215730;23;20020;-76
2022/03/11 11:21:25;;;;;;;22.77;16.70;;;10.60;99.00;;;;;;6217431;23;20012;-80
2022/03/11 11:23:56;;;;;;;25.70;16.77;;;10.70;98.30;;;;;;6215941;23;20066;-80
2022/03/11 11:26:23;;;;;;;23.83;16.42;;;10.80;98.10;;;;;;6191013;23;20348;-80
2022/03/11 11:28:58;;;;;;;28.88;16.67;;;11.10;98.00;;;;;;6215163;23;20110;-80
2022/03/11 11:31:24;;;;;;;22.35;17.15;;;11.00;98.30;;;;;;6190407;23;20024;-81
2022/03/11 11:33:50;;;;;;;24.55;16.42;;;11.20;98.00;;;;;;6223898;23;20030;-82
2022/03/11 11:36:39;;;;;;;25.80;16.65;;;11.20;97.50;;;;;;6241766;23;20016;-79
2022/03/11 11:39:07;;;;;;;21.45;15.82;;;11.40;96.40;;;;;;6215720;23;20111;-80
2022/03/11 11:41:34;;;;;;;21.20;16.20;;;11.40;96.40;;;;;;6216597;23;20004;-79
2022/03/11 11:44:02;;;;;;;18.92;12.40;;;11.50;94.40;;;;;;6241225;23;20417;-81
2022/03/11 11:46:30;;;;;;;22.02;16.30;;;11.20;94.40;;;;;;6241267;23;20432;-78
2022/03/11 11:48:58;;;;;;;21.27;16.08;;;11.30;94.60;;;;;;6216499;23;20034;-78
2022/03/11 11:51:36;;;;;;;20.27;16.33;;;11.60;96.70;;;;;;6239626;23;20082;-81
2022/03/11 11:54:11;;;;;;;23.00;16.20;;;11.70;95.10;;;;;;6242135;23;20012;-79
2022/03/11 11:56:46;;;;;;;22.65;15.68;;;11.80;93.30;;;;;;6244406;22;20660;-78
2022/03/11 11:59:29;;;;;;;24.08;15.45;;;11.80;94.40;;;;;;6240666;23;20091;-78
2022/03/11 12:01:57;;;;;;;19.90;15.38;;;11.90;93.30;;;;;;6240213;23;20039;-83
2022/03/11 12:04:27;;;;;;;21.27;15.45;;;11.80;91.60;;;;;;6241045;23;20447;-80
2022/03/11 12:06:56;;;;;;;25.80;14.35;;;11.80;92.80;;;;;;6240119;22;20039;-82
2022/03/11 12:10:00;;;;;;;22.05;15.05;;;12.00;92.20;;;;;;6216154;23;20375;-80
2022/03/11 12:12:25;;;;;;;22.25;15.48;;;12.00;91.80;;;;;;6244457;23;20016;-83
2022/03/11 12:15:00;;;;;;;19.02;15.02;;;12.10;91.60;;;;;;6242746;23;20312;-84
2022/03/11 12:17:59;;;;;;;23.30;15.13;;;12.30;92.50;;;;;;6218260;23;20016;-83
2022/03/11 12:20:26;;;;;;;20.08;15.38;;;12.50;93.10;;;;;;6243482;23;20012;-81
2022/03/11 12:23:00;;;;;;;26.25;15.00;;;12.70;93.50;;;;;;6217789;23;20469;-82
2022/03/11 12:25:32;;;;;;;19.05;14.65;;;12.40;92.50;;;;;;6242988;23;20095;-81
2022/03/11 12:28:00;;;;;;;18.70;11.68;;;12.50;90.30;;;;;;6217490;23;20055;-86
2022/03/11 12:30:32;;;;;;;21.65;14.13;;;12.80;87.30;;;;;;6217261;23;20290;-83
2022/03/11 12:33:10;;;;;;;20.92;14.13;;;12.70;87.80;;;;;;6242862;23;20016;-81
2022/03/11 12:35:41;;;;;;;19.23;14.43;;;12.60;88.00;;;;;;6216936;23;20039;-83
2022/03/11 12:38:14;;;;;;;20.02;14.77;;;12.90;88.60;;;;;;6168170;23;20078;-79